sensor_id;sensor_type;location;lat;lon;timestamp;pressure;altitude;pressure_sealevel;temperature;humidity
5913;BME280;2982;42.684;23.356;2023-03-23T00:00:47;57515.69;;;-143.17;100.00
5913;BME280;2982;42.684;23.356;2023-03-23T00:03:13;57515.69;;;-143.17;100.00
5913;BME280;2982;42.684;23.356;2023-03-23T00:05:39;57515.69;;;-143.17;100.00
5913;BME280;2982;42.684;23.356;2023-03-23T00:08:04;57515.69;;;-143.17;100.00
5913;BME280;2982;42.684;23.356;2023-03-23T00:10:29;57515.69;;;-143.17;100.00
5913;BME280;2982;42.684;23.356;2023-03-23T00:12:55;57515.69;;;-143.17;100.00
5913;BME280;2982;42.684;23.356;2023-03-23T00:15:20;57515.69;;;-143.17;100.00
5913;BME280;2982;42.684;23.356;2023-03-23T00:17:45;57515.69;;;-143.17;100.00
5913;BME280;2982;42.684;23.356;2023-03-23T00:20:10;57515.69;;;-143.17;100.00
5913;BME280;2982;42.684;23.356;2023-03-23T00:22:36;57515.69;;;-143.17;100.00
5913;BME280;2982;42.684;23.356;2023-03-23T00:25:01;57515.69;;;-143.17;100.00
5913;BME280;2982;42.684;23.356;2023-03-23T00:27:26;57515.69;;;-143.17;100.00
5913;BME280;2982;42.684;23.356;2023-03-23T00:29:52;57515.69;;;-143.17;100.00
5913;BME280;2982;42.684;23.356;2023-03-23T00:32:17;57515.69;;;-143.17;100.00
5913;BME280;2982;42.684;23.356;2023-03-23T00:34:43;57515.69;;;-143.17;100.00
5913;BME280;2982;42.684;23.356;2023-03-23T00:37:08;57515.69;;;-143.17;100.00
5913;BME280;2982;42.684;23.356;2023-03-23T00:39:34;57515.69;;;-143.17;100.00
5913;BME280;2982;42.684;23.356;2023-03-23T00:41:59;57515.69;;;-143.17;100.00
5913;BME280;2982;42.684;23.356;2023-03-23T00:44:24;57515.69;;;-143.17;100.00
5913;BME280;2982;42.684;23.356;2023-03-23T00:46:50;57515.69;;;-143.17;100.00
5913;BME280;2982;42.684;23.356;2023-03-23T00:49:20;57515.69;;;-143.17;100.00
5913;BME280;2982;42.684;23.356;2023-03-23T00:51:45;57515.69;;;-143.17;100.00
5913;BME280;2982;42.684;23.356;2023-03-23T00:54:11;57515.69;;;-143.17;100.00
5913;BME280;2982;42.684;23.356;2023-03-23T00:56:37;57515.69;;;-143.17;100.00
5913;BME280;2982;42.684;23.356;2023-03-23T00:59:03;57515.69;;;-143.17;100.00
5913;BME280;2982;42.684;23.356;2023-03-23T01:01:28;57515.69;;;-143.17;100.00
5913;BME280;2982;42.684;23.356;2023-03-23T01:03:54;57515.69;;;-143.17;100.00
5913;BME280;2982;42.684;23.356;2023-03-23T01:06:19;57515.69;;;-143.17;100.00
5913;BME280;2982;42.684;23.356;2023-03-23T01:08:44;57515.69;;;-143.17;100.00
5913;BME280;2982;42.684;23.356;2023-03-23T01:11:12;57515.69;;;-143.17;100.00
5913;BME280;2982;42.684;23.356;2023-03-23T01:13:38;57515.69;;;-143.17;100.00
5913;BME280;2982;42.684;23.356;2023-03-23T01:16:03;57515.69;;;-143.17;100.00
5913;BME280;2982;42.684;23.356;2023-03-23T01:18:29;57515.69;;;-143.17;100.00
5913;BME280;2982;42.684;23.356;2023-03-23T01:20:54;57515.69;;;-143.17;100.00
5913;BME280;2982;42.684;23.356;2023-03-23T01:23:19;57515.69;;;-143.17;100.00
5913;BME280;2982;42.684;23.356;2023-03-23T01:25:45;57515.69;;;-143.17;100.00
5913;BME280;2982;42.684;23.356;2023-03-23T01:28:10;57515.69;;;-143.17;100.00
5913;BME280;2982;42.684;23.356;2023-03-23T01:30:36;57515.69;;;-143.17;100.00
5913;BME280;2982;42.684;23.356;2023-03-23T01:33:01;57515.69;;;-143.17;100.00
5913;BME280;2982;42.684;23.356;2023-03-23T01:35:26;57515.69;;;-143.17;100.00
5913;BME280;2982;42.684;23.356;2023-03-23T01:37:52;57515.69;;;-143.17;100.00
5913;BME280;2982;42.684;23.356;2023-03-23T01:40:17;57515.69;;;-143.17;100.00
5913;BME280;2982;42.684;23.356;2023-03-23T01:42:42;57515.69;;;-143.17;100.00
5913;BME280;2982;42.684;23.356;2023-03-23T01:47:51;94876.34;;;5.93;100.00
5913;BME280;2982;42.684;23.356;2023-03-23T01:50:31;57515.69;;;-143.17;100.00
5913;BME280;2982;42.684;23.356;2023-03-23T01:52:59;57515.69;;;-143.17;100.00
5913;BME280;2982;42.684;23.356;2023-03-23T01:55:27;94848.38;;;5.76;100.00
5913;BME280;2982;42.684;23.356;2023-03-23T01:58:17;57515.69;;;-143.17;100.00
5913;BME280;2982;42.684;23.356;2023-03-23T02:00:43;94869.19;;;6.06;100.00
5913;BME280;2982;42.684;23.356;2023-03-23T02:03:09;94864.06;;;6.07;100.00
5913;BME280;2982;42.684;23.356;2023-03-23T02:05:40;94864.69;;;6.14;100.00
5913;BME280;2982;42.684;23.356;2023-03-23T02:08:07;94848.38;;;6.01;100.00
5913;BME280;2982;42.684;23.356;2023-03-23T02:10:35;94841.72;;;5.98;100.00
5913;BME280;2982;42.684;23.356;2023-03-23T02:13:03;94858.81;;;6.13;100.00
5913;BME280;2982;42.684;23.356;2023-03-23T02:15:55;94867.22;;;6.14;100.00
5913;BME280;2982;42.684;23.356;2023-03-23T02:19:00;94868.28;;;6.07;100.00
5913;BME280;2982;42.684;23.356;2023-03-23T02:27:14;57515.69;;;-143.17;100.00
5913;BME280;2982;42.684;23.356;2023-03-23T02:29:54;57515.69;;;-143.17;100.00
5913;BME280;2982;42.684;23.356;2023-03-23T02:32:36;57515.69;;;-143.17;100.00
5913;BME280;2982;42.684;23.356;2023-03-23T02:35:46;57515.69;;;-143.17;100.00
5913;BME280;2982;42.684;23.356;2023-03-23T02:38:18;94873.13;;;5.65;100.00
5913;BME280;2982;42.684;23.356;2023-03-23T02:40:49;57515.69;;;12.07;100.00
5913;BME280;2982;42.684;23.356;2023-03-23T02:43:22;57515.69;;;-143.17;100.00
5913;BME280;2982;42.684;23.356;2023-03-23T02:45:50;57515.69;;;-143.17;100.00
5913;BME280;2982;42.684;23.356;2023-03-23T02:48:17;57515.69;;;-143.17;100.00
5913;BME280;2982;42.684;23.356;2023-03-23T02:50:47;57515.69;;;5.62;100.00
5913;BME280;2982;42.684;23.356;2023-03-23T02:53:39;57515.69;;;-143.17;100.00
5913;BME280;2982;42.684;23.356;2023-03-23T02:56:06;94882.34;;;5.16;100.00
5913;BME280;2982;42.684;23.356;2023-03-23T02:58:33;74615.50;;;5.02;100.00
5913;BME280;2982;42.684;23.356;2023-03-23T03:00:58;57515.69;;;-143.17;100.00
5913;BME280;2982;42.684;23.356;2023-03-23T03:03:27;57515.69;;;-143.17;100.00
5913;BME280;2982;42.684;23.356;2023-03-23T03:08:45;94920.63;;;5.00;100.00
5913;BME280;2982;42.684;23.356;2023-03-23T03:11:16;57515.69;;;-143.17;100.00
5913;BME280;2982;42.684;23.356;2023-03-23T03:16:45;57515.69;;;-143.17;100.00
5913;BME280;2982;42.684;23.356;2023-03-23T03:19:20;57515.69;;;-143.17;100.00
5913;BME280;2982;42.684;23.356;2023-03-23T03:21:49;57515.69;;;-143.17;100.00
5913;BME280;2982;42.684;23.356;2023-03-23T03:24:17;57515.69;;;-143.17;100.00
5913;BME280;2982;42.684;23.356;2023-03-23T03:26:48;57515.69;;;-143.17;100.00
5913;BME280;2982;42.684;23.356;2023-03-23T03:29:21;57515.69;;;-143.17;100.00
5913;BME280;2982;42.684;23.356;2023-03-23T03:31:48;57515.69;;;-143.17;100.00
5913;BME280;2982;42.684;23.356;2023-03-23T03:34:15;57515.69;;;-143.17;100.00
5913;BME280;2982;42.684;23.356;2023-03-23T03:36:41;57515.69;;;-143.17;100.00
5913;BME280;2982;42.684;23.356;2023-03-23T03:39:08;57515.69;;;-143.17;100.00
5913;BME280;2982;42.684;23.356;2023-03-23T03:41:35;57515.69;;;-143.17;100.00
5913;BME280;2982;42.684;23.356;2023-03-23T03:44:02;57515.69;;;-143.17;100.00
5913;BME280;2982;42.684;23.356;2023-03-23T03:46:27;57515.69;;;-143.17;100.00
5913;BME280;2982;42.684;23.356;2023-03-23T03:48:53;57515.69;;;-143.17;100.00
5913;BME280;2982;42.684;23.356;2023-03-23T03:51:18;57515.69;;;-143.17;100.00
5913;BME280;2982;42.684;23.356;2023-03-23T03:53:43;57515.69;;;-143.17;100.00
5913;BME280;2982;42.684;23.356;2023-03-23T03:56:09;57515.69;;;-143.17;100.00
5913;BME280;2982;42.684;23.356;2023-03-23T03:58:34;57515.69;;;-143.17;100.00
5913;BME280;2982;42.684;23.356;2023-03-23T04:00:59;57515.69;;;-143.17;100.00
5913;BME280;2982;42.684;23.356;2023-03-23T04:03:26;57515.69;;;-143.17;100.00
5913;BME280;2982;42.684;23.356;2023-03-23T04:05:51;57515.69;;;-143.17;100.00
5913;BME280;2982;42.684;23.356;2023-03-23T04:08:18;57515.69;;;-143.17;100.00
5913;BME280;2982;42.684;23.356;2023-03-23T04:10:45;57515.69;;;-143.17;100.00
5913;BME280;2982;42.684;23.356;2023-03-23T04:13:12;94912.72;;;5.12;100.00
5913;BME280;2982;42.684;23.356;2023-03-23T04:15:37;57515.69;;;-143.17;100.00
5913;BME280;2982;42.684;23.356;2023-03-23T04:18:02;94912.84;;;5.07;100.00
5913;BME280;2982;42.684;23.356;2023-03-23T04:20:28;94903.81;;;5.02;100.00
5913;BME280;2982;42.684;23.356;2023-03-23T04:23:46;57515.69;;;-143.17;100.00
5913;BME280;2982;42.684;23.356;2023-03-23T04:26:12;57515.69;;;-143.17;100.00
5913;BME280;2982;42.684;23.356;2023-03-23T04:28:37;57515.69;;;5.10;100.00
5913;BME280;2982;42.684;23.356;2023-03-23T04:31:03;57515.69;;;-143.17;100.00
5913;BME280;2982;42.684;23.356;2023-03-23T04:33:29;94926.13;;;5.12;100.00
5913;BME280;2982;42.684;23.356;2023-03-23T04:35:56;57515.69;;;-106.33;100.00
5913;BME280;2982;42.684;23.356;2023-03-23T04:38:23;94926.13;;;5.12;100.00
5913;BME280;2982;42.684;23.356;2023-03-23T04:40:50;94922.16;;;5.31;100.00
5913;BME280;2982;42.684;23.356;2023-03-23T04:43:16;94916.19;;;5.34;100.00
5913;BME280;2982;42.684;23.356;2023-03-23T04:45:41;94930.16;;;5.43;100.00
5913;BME280;2982;42.684;23.356;2023-03-23T04:48:07;94927.75;;;5.40;100.00
5913;BME280;2982;42.684;23.356;2023-03-23T04:50:34;57515.69;;;-143.17;100.00
5913;BME280;2982;42.684;23.356;2023-03-23T04:53:01;94938.50;;;5.45;100.00
5913;BME280;2982;42.684;23.356;2023-03-23T04:55:26;57515.69;;;-143.17;100.00
5913;BME280;2982;42.684;23.356;2023-03-23T04:57:52;57515.69;;;-143.17;100.00
5913;BME280;2982;42.684;23.356;2023-03-23T05:00:18;57515.69;;;-143.17;100.00
5913;BME280;2982;42.684;23.356;2023-03-23T05:02:45;57515.69;;;-143.17;100.00
5913;BME280;2982;42.684;23.356;2023-03-23T05:05:11;94944.47;;;5.67;100.00
5913;BME280;2982;42.684;23.356;2023-03-23T05:07:38;94901.72;;;5.39;100.00
5913;BME280;2982;42.684;23.356;2023-03-23T05:10:04;94945.09;;;5.73;100.00
5913;BME280;2982;42.684;23.356;2023-03-23T05:12:30;94940.38;;;5.89;100.00
5913;BME280;2982;42.684;23.356;2023-03-23T05:14:55;94931.16;;;5.88;100.00
5913;BME280;2982;42.684;23.356;2023-03-23T05:17:21;94936.53;;;6.02;100.00
5913;BME280;2982;42.684;23.356;2023-03-23T05:19:46;57515.69;;;6.15;0.00
5913;BME280;2982;42.684;23.356;2023-03-23T05:22:11;94932.72;;;5.92;100.00
5913;BME280;2982;42.684;23.356;2023-03-23T05:24:37;94963.47;;;6.02;100.00
5913;BME280;2982;42.684;23.356;2023-03-23T05:27:02;94967.75;;;6.00;100.00
5913;BME280;2982;42.684;23.356;2023-03-23T05:29:27;94961.03;;;5.99;100.00
5913;BME280;2982;42.684;23.356;2023-03-23T05:31:53;94946.03;;;5.96;100.00
5913;BME280;2982;42.684;23.356;2023-03-23T05:34:19;94959.16;;;6.05;100.00
5913;BME280;2982;42.684;23.356;2023-03-23T05:36:45;57515.69;;;-143.17;100.00
5913;BME280;2982;42.684;23.356;2023-03-23T05:39:11;94947.41;;;6.04;100.00
5913;BME280;2982;42.684;23.356;2023-03-23T05:41:37;94972.75;;;6.25;100.00
5913;BME280;2982;42.684;23.356;2023-03-23T05:44:03;94981.00;;;6.30;100.00
5913;BME280;2982;42.684;23.356;2023-03-23T05:46:29;94915.16;;;5.89;0.00
5913;BME280;2982;42.684;23.356;2023-03-23T05:48:54;94978.50;;;6.28;100.00
5913;BME280;2982;42.684;23.356;2023-03-23T05:51:20;94969.25;;;6.29;100.00
5913;BME280;2982;42.684;23.356;2023-03-23T05:53:45;57515.69;;;-143.17;100.00
5913;BME280;2982;42.684;23.356;2023-03-23T05:56:21;57515.69;;;-143.17;100.00
5913;BME280;2982;42.684;23.356;2023-03-23T05:58:47;94965.09;;;6.73;100.00
5913;BME280;2982;42.684;23.356;2023-03-23T06:01:12;94997.00;;;6.97;100.00
5913;BME280;2982;42.684;23.356;2023-03-23T06:03:37;57515.69;;;-143.17;100.00
5913;BME280;2982;42.684;23.356;2023-03-23T06:06:03;57515.69;;;-143.17;100.00
5913;BME280;2982;42.684;23.356;2023-03-23T06:08:28;57515.69;;;-143.17;100.00
5913;BME280;2982;42.684;23.356;2023-03-23T06:10:54;57515.69;;;-143.17;100.00
5913;BME280;2982;42.684;23.356;2023-03-23T06:13:19;57515.69;;;-143.17;100.00
5913;BME280;2982;42.684;23.356;2023-03-23T06:15:44;57515.69;;;-143.17;100.00
5913;BME280;2982;42.684;23.356;2023-03-23T06:18:10;57515.69;;;-143.17;100.00
5913;BME280;2982;42.684;23.356;2023-03-23T06:20:35;57515.69;;;-143.17;100.00
5913;BME280;2982;42.684;23.356;2023-03-23T06:23:01;57515.69;;;-143.17;100.00
5913;BME280;2982;42.684;23.356;2023-03-23T06:25:26;57515.69;;;-143.17;100.00
5913;BME280;2982;42.684;23.356;2023-03-23T06:27:51;57515.69;;;-143.17;100.00
5913;BME280;2982;42.684;23.356;2023-03-23T06:30:16;57515.69;;;-143.17;100.00
5913;BME280;2982;42.684;23.356;2023-03-23T06:32:42;57515.69;;;-143.17;100.00
5913;BME280;2982;42.684;23.356;2023-03-23T06:35:09;57515.69;;;-143.17;100.00
5913;BME280;2982;42.684;23.356;2023-03-23T06:37:36;57515.69;;;-143.17;100.00
5913;BME280;2982;42.684;23.356;2023-03-23T06:40:03;57515.69;;;-143.17;100.00
5913;BME280;2982;42.684;23.356;2023-03-23T06:42:28;57515.69;;;-143.17;100.00
5913;BME280;2982;42.684;23.356;2023-03-23T06:44:53;57515.69;;;-143.17;100.00
5913;BME280;2982;42.684;23.356;2023-03-23T06:47:19;57515.69;;;-143.17;100.00
5913;BME280;2982;42.684;23.356;2023-03-23T06:49:44;57515.69;;;-143.17;100.00
5913;BME280;2982;42.684;23.356;2023-03-23T06:52:09;57515.69;;;-143.17;100.00
5913;BME280;2982;42.684;23.356;2023-03-23T06:54:34;57515.69;;;-143.17;100.00
5913;BME280;2982;42.684;23.356;2023-03-23T06:57:00;57515.69;;;-143.17;100.00
5913;BME280;2982;42.684;23.356;2023-03-23T06:59:25;57515.69;;;-143.17;100.00
5913;BME280;2982;42.684;23.356;2023-03-23T07:01:50;57515.69;;;-143.17;100.00
5913;BME280;2982;42.684;23.356;2023-03-23T07:04:16;57515.69;;;-143.17;100.00
5913;BME280;2982;42.684;23.356;2023-03-23T07:06:41;57515.69;;;-143.17;100.00
5913;BME280;2982;42.684;23.356;2023-03-23T07:09:06;57515.69;;;-143.17;100.00
5913;BME280;2982;42.684;23.356;2023-03-23T07:11:32;57515.69;;;-143.17;100.00
5913;BME280;2982;42.684;23.356;2023-03-23T07:13:57;57515.69;;;-143.17;100.00
5913;BME280;2982;42.684;23.356;2023-03-23T07:16:23;57515.69;;;-143.17;100.00
5913;BME280;2982;42.684;23.356;2023-03-23T07:18:48;57515.69;;;-143.17;100.00
5913;BME280;2982;42.684;23.356;2023-03-23T07:21:13;57515.69;;;-143.17;100.00
5913;BME280;2982;42.684;23.356;2023-03-23T07:23:38;57515.69;;;-143.17;100.00
5913;BME280;2982;42.684;23.356;2023-03-23T07:26:04;57515.69;;;-143.17;100.00
5913;BME280;2982;42.684;23.356;2023-03-23T07:28:29;57515.69;;;-143.17;100.00
5913;BME280;2982;42.684;23.356;2023-03-23T07:30:55;57515.69;;;-143.17;100.00
5913;BME280;2982;42.684;23.356;2023-03-23T07:33:20;57515.69;;;-143.17;100.00
5913;BME280;2982;42.684;23.356;2023-03-23T07:35:46;57515.69;;;-143.17;100.00
5913;BME280;2982;42.684;23.356;2023-03-23T07:38:11;57515.69;;;-143.17;100.00
5913;BME280;2982;42.684;23.356;2023-03-23T07:40:37;57515.69;;;-143.17;100.00
5913;BME280;2982;42.684;23.356;2023-03-23T07:43:03;57515.69;;;-143.17;100.00
5913;BME280;2982;42.684;23.356;2023-03-23T07:45:29;57515.69;;;-143.17;100.00
5913;BME280;2982;42.684;23.356;2023-03-23T07:47:55;57515.69;;;-143.17;100.00
5913;BME280;2982;42.684;23.356;2023-03-23T07:50:20;57515.69;;;-143.17;100.00
5913;BME280;2982;42.684;23.356;2023-03-23T07:52:46;57515.69;;;-143.17;100.00
5913;BME280;2982;42.684;23.356;2023-03-23T07:55:11;57515.69;;;-143.17;100.00
5913;BME280;2982;42.684;23.356;2023-03-23T07:57:37;57515.69;;;-143.17;100.00
5913;BME280;2982;42.684;23.356;2023-03-23T08:00:02;57515.69;;;-143.17;100.00
5913;BME280;2982;42.684;23.356;2023-03-23T08:02:28;57515.69;;;-143.17;100.00
5913;BME280;2982;42.684;23.356;2023-03-23T08:04:53;57515.69;;;-143.17;100.00
5913;BME280;2982;42.684;23.356;2023-03-23T08:07:19;57515.69;;;-143.17;100.00
5913;BME280;2982;42.684;23.356;2023-03-23T08:09:46;57515.69;;;-143.17;100.00
5913;BME280;2982;42.684;23.356;2023-03-23T08:12:11;57515.69;;;-143.17;100.00
5913;BME280;2982;42.684;23.356;2023-03-23T08:14:36;57515.69;;;-143.17;100.00
5913;BME280;2982;42.684;23.356;2023-03-23T08:17:02;57515.69;;;-143.17;100.00
5913;BME280;2982;42.684;23.356;2023-03-23T08:19:27;57515.69;;;-143.17;100.00
5913;BME280;2982;42.684;23.356;2023-03-23T08:21:52;57515.69;;;-143.17;100.00
5913;BME280;2982;42.684;23.356;2023-03-23T08:24:17;57515.69;;;-143.17;100.00
5913;BME280;2982;42.684;23.356;2023-03-23T08:26:43;57515.69;;;-143.17;100.00
5913;BME280;2982;42.684;23.356;2023-03-23T08:29:08;57515.69;;;-143.17;100.00
5913;BME280;2982;42.684;23.356;2023-03-23T08:31:34;57515.69;;;-143.17;100.00
5913;BME280;2982;42.684;23.356;2023-03-23T08:34:00;57515.69;;;-143.17;100.00
5913;BME280;2982;42.684;23.356;2023-03-23T08:36:25;57515.69;;;-143.17;100.00
5913;BME280;2982;42.684;23.356;2023-03-23T08:38:50;57515.69;;;-143.17;100.00
5913;BME280;2982;42.684;23.356;2023-03-23T08:41:16;57515.69;;;-143.17;100.00
5913;BME280;2982;42.684;23.356;2023-03-23T08:43:41;57515.69;;;-143.17;100.00
5913;BME280;2982;42.684;23.356;2023-03-23T08:46:06;57515.69;;;-143.17;100.00
5913;BME280;2982;42.684;23.356;2023-03-23T08:48:32;57515.69;;;-143.17;100.00
5913;BME280;2982;42.684;23.356;2023-03-23T08:50:57;57515.69;;;-143.17;100.00
5913;BME280;2982;42.684;23.356;2023-03-23T08:53:23;57515.69;;;-143.17;100.00
5913;BME280;2982;42.684;23.356;2023-03-23T08:55:48;57515.69;;;-143.17;100.00
5913;BME280;2982;42.684;23.356;2023-03-23T08:58:14;57515.69;;;-143.17;100.00
5913;BME280;2982;42.684;23.356;2023-03-23T09:00:39;57515.69;;;-143.17;100.00
5913;BME280;2982;42.684;23.356;2023-03-23T09:03:04;57515.69;;;-143.17;100.00
5913;BME280;2982;42.684;23.356;2023-03-23T09:05:30;57515.69;;;-143.17;100.00
5913;BME280;2982;42.684;23.356;2023-03-23T09:07:57;57515.69;;;-143.17;100.00
5913;BME280;2982;42.684;23.356;2023-03-23T09:10:22;57515.69;;;-143.17;100.00
5913;BME280;2982;42.684;23.356;2023-03-23T09:12:48;57515.69;;;-143.17;100.00
5913;BME280;2982;42.684;23.356;2023-03-23T09:15:15;57515.69;;;-143.17;100.00
5913;BME280;2982;42.684;23.356;2023-03-23T09:17:44;57515.69;;;-143.17;100.00
5913;BME280;2982;42.684;23.356;2023-03-23T09:20:11;57515.69;;;-143.17;100.00
5913;BME280;2982;42.684;23.356;2023-03-23T09:22:38;57515.69;;;-143.17;100.00
5913;BME280;2982;42.684;23.356;2023-03-23T09:25:04;57515.69;;;-143.17;100.00
5913;BME280;2982;42.684;23.356;2023-03-23T09:27:29;57515.69;;;-143.17;100.00
5913;BME280;2982;42.684;23.356;2023-03-23T09:29:55;57515.69;;;-143.17;100.00
5913;BME280;2982;42.684;23.356;2023-03-23T09:32:20;57515.69;;;-143.17;100.00
5913;BME280;2982;42.684;23.356;2023-03-23T09:34:46;57515.69;;;-143.17;100.00
5913;BME280;2982;42.684;23.356;2023-03-23T09:37:11;57515.69;;;-143.17;100.00
5913;BME280;2982;42.684;23.356;2023-03-23T09:39:36;57515.69;;;-143.17;100.00
5913;BME280;2982;42.684;23.356;2023-03-23T09:52:13;57515.69;;;-143.17;100.00
5913;BME280;2982;42.684;23.356;2023-03-23T09:54:43;57515.69;;;-143.17;100.00
5913;BME280;2982;42.684;23.356;2023-03-23T09:57:32;57515.69;;;-143.17;100.00
5913;BME280;2982;42.684;23.356;2023-03-23T10:00:20;57515.69;;;-143.17;100.00
5913;BME280;2982;42.684;23.356;2023-03-23T10:05:38;57515.69;;;-143.17;100.00
5913;BME280;2982;42.684;23.356;2023-03-23T10:08:20;57515.69;;;-143.17;100.00
5913;BME280;2982;42.684;23.356;2023-03-23T10:16:29;57515.69;;;-143.17;100.00
5913;BME280;2982;42.684;23.356;2023-03-23T10:22:09;57515.69;;;-143.17;100.00
5913;BME280;2982;42.684;23.356;2023-03-23T10:24:42;57515.69;;;-143.17;100.00
5913;BME280;2982;42.684;23.356;2023-03-23T10:27:17;57515.69;;;-143.17;100.00
5913;BME280;2982;42.684;23.356;2023-03-23T10:29:57;57515.69;;;-143.17;100.00
5913;BME280;2982;42.684;23.356;2023-03-23T10:32:43;57515.69;;;-143.17;100.00
5913;BME280;2982;42.684;23.356;2023-03-23T10:35:18;57515.69;;;-143.17;100.00
5913;BME280;2982;42.684;23.356;2023-03-23T10:38:02;57515.69;;;-143.17;100.00
5913;BME280;2982;42.684;23.356;2023-03-23T10:40:29;57515.69;;;-143.17;100.00
5913;BME280;2982;42.684;23.356;2023-03-23T10:42:56;57515.69;;;-143.17;100.00
5913;BME280;2982;42.684;23.356;2023-03-23T10:50:36;57515.69;;;-143.17;100.00
5913;BME280;2982;42.684;23.356;2023-03-23T10:53:11;57515.69;;;-143.17;100.00
5913;BME280;2982;42.684;23.356;2023-03-23T10:55:40;57515.69;;;-143.17;100.00
5913;BME280;2982;42.684;23.356;2023-03-23T10:58:11;57515.69;;;-143.17;100.00
5913;BME280;2982;42.684;23.356;2023-03-23T11:00:43;57515.69;;;-143.17;100.00
5913;BME280;2982;42.684;23.356;2023-03-23T11:05:52;57515.69;;;-143.17;100.00
5913;BME280;2982;42.684;23.356;2023-03-23T11:08:27;57515.69;;;-143.17;100.00
5913;BME280;2982;42.684;23.356;2023-03-23T11:10:59;57515.69;;;-143.17;100.00
5913;BME280;2982;42.684;23.356;2023-03-23T11:13:32;57515.69;;;-143.17;100.00
5913;BME280;2982;42.684;23.356;2023-03-23T11:15:59;57515.69;;;-143.17;100.00
5913;BME280;2982;42.684;23.356;2023-03-23T11:18:42;57515.69;;;-143.17;100.00
5913;BME280;2982;42.684;23.356;2023-03-23T11:21:08;57515.69;;;-143.17;100.00
5913;BME280;2982;42.684;23.356;2023-03-23T11:23:38;57515.69;;;-143.17;100.00
5913;BME280;2982;42.684;23.356;2023-03-23T11:26:29;57515.69;;;-143.17;100.00
5913;BME280;2982;42.684;23.356;2023-03-23T11:31:32;57515.69;;;-143.17;100.00
5913;BME280;2982;42.684;23.356;2023-03-23T11:34:01;57515.69;;;-143.17;100.00
5913;BME280;2982;42.684;23.356;2023-03-23T11:36:36;57515.69;;;-143.17;100.00
5913;BME280;2982;42.684;23.356;2023-03-23T11:39:18;57515.69;;;-143.17;100.00
5913;BME280;2982;42.684;23.356;2023-03-23T11:41:44;57515.69;;;-143.17;100.00
5913;BME280;2982;42.684;23.356;2023-03-23T11:44:10;57515.69;;;-143.17;100.00
5913;BME280;2982;42.684;23.356;2023-03-23T11:49:45;57515.69;;;-143.17;100.00
5913;BME280;2982;42.684;23.356;2023-03-23T11:52:26;57515.69;;;-143.17;100.00
5913;BME280;2982;42.684;23.356;2023-03-23T11:55:10;57515.69;;;-143.17;100.00
5913;BME280;2982;42.684;23.356;2023-03-23T11:57:36;57515.69;;;-143.17;100.00
5913;BME280;2982;42.684;23.356;2023-03-23T12:00:14;57515.69;;;-143.17;100.00
5913;BME280;2982;42.684;23.356;2023-03-23T12:03:04;57515.69;;;-143.17;100.00
5913;BME280;2982;42.684;23.356;2023-03-23T12:06:24;57515.69;;;-143.17;100.00
5913;BME280;2982;42.684;23.356;2023-03-23T12:08:58;57515.69;;;-143.17;100.00
5913;BME280;2982;42.684;23.356;2023-03-23T12:14:14;57515.69;;;-143.17;100.00
5913;BME280;2982;42.684;23.356;2023-03-23T12:19:34;57515.69;;;-143.17;100.00
5913;BME280;2982;42.684;23.356;2023-03-23T12:27:38;57515.69;;;-143.17;100.00
5913;BME280;2982;42.684;23.356;2023-03-23T12:30:14;57515.69;;;-143.17;100.00
5913;BME280;2982;42.684;23.356;2023-03-23T12:33:16;57515.69;;;-143.17;100.00
5913;BME280;2982;42.684;23.356;2023-03-23T12:38:51;57515.69;;;-143.17;100.00
5913;BME280;2982;42.684;23.356;2023-03-23T12:41:36;57515.69;;;-143.17;100.00
5913;BME280;2982;42.684;23.356;2023-03-23T12:44:10;57515.69;;;-143.17;100.00
5913;BME280;2982;42.684;23.356;2023-03-23T12:51:53;57515.69;;;-143.17;100.00
5913;BME280;2982;42.684;23.356;2023-03-23T12:54:26;57515.69;;;-143.17;100.00
5913;BME280;2982;42.684;23.356;2023-03-23T12:57:16;57515.69;;;-143.17;100.00
5913;BME280;2982;42.684;23.356;2023-03-23T13:00:06;57515.69;;;-143.17;100.00
5913;BME280;2982;42.684;23.356;2023-03-23T13:02:42;57515.69;;;-143.17;100.00
5913;BME280;2982;42.684;23.356;2023-03-23T13:05:24;57515.69;;;-143.17;100.00
5913;BME280;2982;42.684;23.356;2023-03-23T13:08:06;57515.69;;;-143.17;100.00
5913;BME280;2982;42.684;23.356;2023-03-23T13:10:47;57515.69;;;-143.17;100.00
5913;BME280;2982;42.684;23.356;2023-03-23T13:13:21;57515.69;;;-143.17;100.00
5913;BME280;2982;42.684;23.356;2023-03-23T13:16:05;57515.69;;;-143.17;100.00
5913;BME280;2982;42.684;23.356;2023-03-23T13:18:57;57515.69;;;-143.17;100.00
5913;BME280;2982;42.684;23.356;2023-03-23T13:21:32;57515.69;;;-143.17;100.00
5913;BME280;2982;42.684;23.356;2023-03-23T13:24:03;57515.69;;;-143.17;100.00
5913;BME280;2982;42.684;23.356;2023-03-23T13:26:31;57515.69;;;-143.17;100.00
5913;BME280;2982;42.684;23.356;2023-03-23T13:28:59;57515.69;;;-143.17;100.00
5913;BME280;2982;42.684;23.356;2023-03-23T13:33:53;57515.69;;;-143.17;100.00
5913;BME280;2982;42.684;23.356;2023-03-23T13:39:02;57515.69;;;-143.17;100.00
5913;BME280;2982;42.684;23.356;2023-03-23T13:41:28;57515.69;;;-143.17;100.00
5913;BME280;2982;42.684;23.356;2023-03-23T13:44:05;57515.69;;;-143.17;100.00
5913;BME280;2982;42.684;23.356;2023-03-23T13:46:39;57515.69;;;-143.17;100.00
5913;BME280;2982;42.684;23.356;2023-03-23T13:49:17;57515.69;;;-143.17;100.00
5913;BME280;2982;42.684;23.356;2023-03-23T13:56:52;57515.69;;;-143.17;100.00
5913;BME280;2982;42.684;23.356;2023-03-23T14:01:54;57515.69;;;-143.17;100.00
5913;BME280;2982;42.684;23.356;2023-03-23T14:04:20;57515.69;;;-143.17;100.00
5913;BME280;2982;42.684;23.356;2023-03-23T14:06:49;57515.69;;;-143.17;100.00
5913;BME280;2982;42.684;23.356;2023-03-23T14:09:28;57515.69;;;-143.17;100.00
5913;BME280;2982;42.684;23.356;2023-03-23T14:11:59;57515.69;;;-143.17;100.00
5913;BME280;2982;42.684;23.356;2023-03-23T14:14:33;57515.69;;;-143.17;100.00
5913;BME280;2982;42.684;23.356;2023-03-23T14:17:08;57515.69;;;-143.17;100.00